Time;durP1;ratioP1;P1;durP2;ratioP2;P2;SDS_P1;SDS_P2;PMS_P1;PMS_P2;Temp;Humidity;BMP_temperature;BMP_pressure;BME280_temperature;BME280_humidity;BME280_pressure;Samples;Min_cycle;Max_cycle;Signal;HPM_P1;HPM_P2
2023/08/11 00:02:18;;;;;;;3.57;2.50;;;11.80;99.90;;;;;;5050085;28;20734;-81
2023/08/11 00:04:45;;;;;;;4.53;2.30;;;11.80;99.90;;;;;;5049836;28;20247;-81
2023/08/11 00:07:12;;;;;;;5.23;2.23;;;11.70;99.90;;;;;;5047947;28;20223;-81
2023/08/11 00:09:39;;;;;;;4.90;2.50;;;11.70;99.90;;;;;;5048937;28;20254;-81
2023/08/11 00:12:06;;;;;;;4.97;2.63;;;11.70;99.90;;;;;;5050085;28;20226;-81
2023/08/11 00:14:34;;;;;;;3.13;2.00;;;11.70;99.90;;;;;;5049916;28;20681;-80
2023/08/11 00:17:02;;;;;;;5.03;1.83;;;11.60;99.90;;;;;;5049905;28;20243;-81
2023/08/11 00:19:30;;;;;;;4.27;2.03;;;11.60;99.90;;;;;;5040705;28;20236;-81
2023/08/11 00:21:57;;;;;;;3.97;2.10;;;11.60;99.90;;;;;;5048457;28;20730;-80
2023/08/11 00:24:24;;;;;;;2.93;2.10;;;11.50;99.90;;;;;;5049829;28;20233;-80
2023/08/11 00:26:51;;;;;;;3.90;2.03;;;11.50;99.90;;;;;;5047378;28;20710;-80
2023/08/11 00:29:18;;;;;;;4.50;2.37;;;11.50;99.90;;;;;;5046953;28;20902;-80
2023/08/11 00:31:46;;;;;;;5.47;2.30;;;11.50;99.90;;;;;;5046019;28;20304;-80
2023/08/11 00:34:13;;;;;;;7.00;2.50;;;11.40;99.90;;;;;;5043114;28;20925;-79
2023/08/11 00:36:40;;;;;;;4.00;2.37;;;11.40;99.90;;;;;;5045119;28;20578;-79
2023/08/11 00:39:07;;;;;;;3.70;2.20;;;11.40;99.90;;;;;;5042137;28;20225;-80
2023/08/11 00:41:34;;;;;;;4.03;2.10;;;11.40;99.90;;;;;;5044983;28;20252;-80
2023/08/11 00:44:01;;;;;;;5.93;2.73;;;11.40;99.90;;;;;;5047966;28;20274;-80
2023/08/11 00:46:28;;;;;;;6.80;2.63;;;11.30;99.90;;;;;;5045836;28;20228;-80
2023/08/11 00:48:56;;;;;;;4.53;2.00;;;11.40;99.90;;;;;;5047789;28;20233;-80
2023/08/11 00:51:24;;;;;;;3.33;1.90;;;11.30;99.90;;;;;;5063196;28;20266;-80
2023/08/11 00:53:52;;;;;;;4.83;2.00;;;11.30;99.90;;;;;;5027665;28;20224;-81
2023/08/11 00:56:20;;;;;;;3.60;2.20;;;11.30;99.90;;;;;;5026581;28;20232;-81
2023/08/11 00:58:48;;;;;;;4.13;2.10;;;11.30;99.90;;;;;;5027499;28;20224;-80
2023/08/11 01:01:15;;;;;;;3.40;2.13;;;11.20;99.90;;;;;;5035722;28;20223;-80
2023/08/11 01:03:43;;;;;;;3.73;2.30;;;11.20;99.90;;;;;;5044838;28;20226;-80
2023/08/11 01:06:19;;;;;;;4.30;2.23;;;11.20;99.90;;;;;;5051267;28;20291;-81
2023/08/11 01:08:53;;;;;;;3.07;2.30;;;11.20;99.90;;;;;;5046921;28;20369;-80
2023/08/11 01:11:28;;;;;;;4.77;2.47;;;11.20;99.90;;;;;;5042097;28;20255;-80
2023/08/11 01:14:02;;;;;;;3.50;2.40;;;11.20;99.90;;;;;;5044731;28;20215;-79
2023/08/11 01:16:32;;;;;;;4.50;2.30;;;11.20;99.90;;;;;;5045699;28;20237;-80
2023/08/11 01:19:00;;;;;;;5.90;2.70;;;11.20;99.90;;;;;;5043101;28;20222;-81
2023/08/11 01:21:28;;;;;;;4.97;2.23;;;11.20;99.90;;;;;;5044638;28;20231;-80
2023/08/11 01:23:58;;;;;;;5.07;2.33;;;11.10;99.90;;;;;;5042446;28;20218;-80
2023/08/11 01:26:26;;;;;;;6.47;2.40;;;11.10;99.90;;;;;;5048664;28;20230;-80
2023/08/11 01:28:54;;;;;;;4.47;2.73;;;11.10;99.90;;;;;;5047175;28;20804;-80
2023/08/11 01:31:20;;;;;;;4.20;2.00;;;11.10;99.90;;;;;;5042504;28;20227;-81
2023/08/11 01:33:47;;;;;;;3.00;1.97;;;11.10;99.90;;;;;;5046616;28;20323;-80
2023/08/11 01:36:14;;;;;;;4.30;2.50;;;11.00;99.90;;;;;;5045661;28;20238;-80
2023/08/11 01:38:41;;;;;;;5.13;2.57;;;11.00;99.90;;;;;;5045375;28;20285;-80
2023/08/11 01:41:09;;;;;;;5.30;2.47;;;11.00;99.90;;;;;;5044769;28;20220;-80
2023/08/11 01:43:37;;;;;;;6.23;2.67;;;11.00;99.90;;;;;;5046677;28;20308;-80
2023/08/11 01:46:04;;;;;;;5.40;2.87;;;11.00;99.90;;;;;;5045649;28;20230;-79
2023/08/11 01:48:32;;;;;;;4.73;2.40;;;11.00;99.90;;;;;;5045073;28;20228;-79
2023/08/11 01:50:59;;;;;;;4.10;2.77;;;11.00;99.90;;;;;;5040686;28;20289;-80
2023/08/11 01:53:26;;;;;;;4.77;2.33;;;11.00;99.90;;;;;;5045788;28;20222;-80
2023/08/11 01:55:54;;;;;;;4.20;2.77;;;11.00;99.90;;;;;;5029019;28;20231;-81
2023/08/11 01:58:22;;;;;;;5.80;2.87;;;11.10;99.90;;;;;;5043991;28;20245;-81
2023/08/11 02:00:49;;;;;;;4.37;2.30;;;11.10;99.90;;;;;;5044109;28;20232;-82
2023/08/11 02:03:17;;;;;;;5.23;2.47;;;11.20;99.90;;;;;;5042962;28;20270;-81
2023/08/11 02:05:45;;;;;;;4.80;2.37;;;11.20;99.90;;;;;;5046028;28;20263;-81
2023/08/11 02:08:17;;;;;;;2.97;2.27;;;11.20;99.90;;;;;;5045909;28;20255;-79
2023/08/11 02:10:44;;;;;;;4.77;2.50;;;11.30;99.90;;;;;;5046449;28;20323;-80
2023/08/11 02:13:12;;;;;;;4.63;2.53;;;11.40;99.90;;;;;;5045761;28;20294;-80
2023/08/11 02:15:41;;;;;;;4.80;2.70;;;11.50;99.90;;;;;;5044634;28;20331;-81
2023/08/11 02:18:08;;;;;;;6.07;2.37;;;11.50;99.90;;;;;;5043889;28;20689;-81
2023/08/11 02:20:35;;;;;;;7.57;2.67;;;11.60;99.90;;;;;;5043990;28;20273;-81
2023/08/11 02:23:02;;;;;;;3.77;2.50;;;11.70;99.90;;;;;;5044699;28;20224;-82
2023/08/11 02:25:29;;;;;;;3.13;2.00;;;11.80;99.90;;;;;;5043200;28;20358;-82
2023/08/11 02:27:56;;;;;;;3.77;2.20;;;11.80;99.90;;;;;;5045026;28;20228;-83
2023/08/11 02:30:24;;;;;;;4.97;2.20;;;11.90;99.90;;;;;;5043841;28;20235;-82
2023/08/11 02:32:52;;;;;;;5.17;2.70;;;12.00;99.90;;;;;;5046110;28;20244;-82
2023/08/11 02:35:19;;;;;;;5.17;2.40;;;12.00;99.90;;;;;;5044386;28;20722;-82
2023/08/11 02:37:46;;;;;;;6.17;2.33;;;12.10;99.90;;;;;;5041108;28;20947;-83
2023/08/11 02:40:14;;;;;;;5.53;2.27;;;12.10;99.90;;;;;;5039225;28;20226;-83
2023/08/11 02:42:45;;;;;;;5.37;2.57;;;12.20;99.90;;;;;;5044364;28;20318;-82
2023/08/11 02:45:12;;;;;;;3.93;2.00;;;12.20;99.90;;;;;;5046263;28;20224;-82
2023/08/11 02:47:40;;;;;;;5.10;2.37;;;12.30;99.90;;;;;;5046569;28;20228;-81
2023/08/11 02:50:09;;;;;;;5.23;1.83;;;12.40;99.90;;;;;;5043975;28;20688;-83
2023/08/11 02:52:37;;;;;;;3.23;2.10;;;12.40;99.90;;;;;;5043067;28;20324;-82
2023/08/11 02:55:04;;;;;;;4.93;2.00;;;12.50;99.90;;;;;;5037869;28;20232;-82
2023/08/11 02:57:32;;;;;;;4.53;2.00;;;12.50;99.90;;;;;;5032042;28;20222;-81
2023/08/11 02:59:58;;;;;;;4.90;1.77;;;12.50;99.90;;;;;;5043354;28;20211;-81
2023/08/11 03:02:26;;;;;;;5.60;2.50;;;12.50;99.90;;;;;;5043752;28;20918;-81
2023/08/11 03:04:52;;;;;;;3.93;2.20;;;12.50;99.90;;;;;;5039762;28;20281;-82
2023/08/11 03:07:21;;;;;;;6.00;2.60;;;12.50;99.90;;;;;;5042434;28;20221;-80
2023/08/11 03:09:47;;;;;;;4.03;2.20;;;12.60;99.90;;;;;;5043428;28;20227;-81
2023/08/11 03:12:14;;;;;;;4.93;2.30;;;12.60;99.90;;;;;;5038371;28;20231;-81
2023/08/11 03:14:41;;;;;;;4.67;2.13;;;12.60;99.90;;;;;;5044930;28;20223;-81
2023/08/11 03:17:11;;;;;;;3.93;2.23;;;12.70;99.90;;;;;;5042837;28;20222;-81
2023/08/11 03:19:38;;;;;;;6.53;2.20;;;12.70;99.90;;;;;;5040618;28;20952;-81
2023/08/11 03:22:05;;;;;;;3.43;2.23;;;12.70;99.90;;;;;;5040802;28;20720;-80
2023/08/11 03:24:34;;;;;;;7.80;2.27;;;12.70;99.90;;;;;;5042593;28;20746;-79
2023/08/11 03:27:01;;;;;;;3.13;2.03;;;12.70;99.90;;;;;;5039557;28;20290;-79
2023/08/11 03:29:28;;;;;;;6.80;2.43;;;12.80;99.90;;;;;;5032277;28;20225;-79
2023/08/11 03:31:56;;;;;;;5.33;2.30;;;12.80;99.90;;;;;;5040674;28;20219;-83
2023/08/11 03:34:22;;;;;;;3.80;2.30;;;12.80;99.90;;;;;;5042674;28;20235;-80
2023/08/11 03:36:49;;;;;;;3.67;2.73;;;12.80;99.90;;;;;;5041672;28;20298;-81
2023/08/11 03:39:16;;;;;;;5.53;2.57;;;12.90;99.90;;;;;;5025155;28;20227;-80
2023/08/11 03:41:44;;;;;;;5.00;2.20;;;12.90;99.90;;;;;;5044245;28;20229;-81
2023/08/11 03:44:11;;;;;;;4.30;2.10;;;13.00;99.90;;;;;;5078350;28;20229;-80
2023/08/11 03:46:38;;;;;;;3.93;2.13;;;13.00;99.90;;;;;;5053555;28;20224;-80
2023/08/11 03:49:06;;;;;;;4.60;2.50;;;13.00;99.90;;;;;;5044123;28;20232;-80
2023/08/11 03:51:33;;;;;;;4.47;2.20;;;13.10;99.90;;;;;;5043322;28;20227;-80
2023/08/11 03:54:02;;;;;;;6.63;2.37;;;13.10;99.90;;;;;;5043633;28;20318;-79
2023/08/11 03:56:31;;;;;;;6.67;2.83;;;13.10;99.90;;;;;;5043107;28;20226;-80
2023/08/11 03:58:59;;;;;;;6.27;2.30;;;13.20;99.90;;;;;;5043874;28;20224;-80
2023/08/11 04:01:26;;;;;;;4.63;2.50;;;13.20;99.90;;;;;;5042930;28;21028;-80
2023/08/11 04:03:53;;;;;;;4.23;2.00;;;13.20;99.90;;;;;;5043910;28;20231;-81
2023/08/11 04:06:20;;;;;;;5.03;2.30;;;13.30;99.90;;;;;;5044130;28;20226;-81
2023/08/11 04:08:47;;;;;;;2.83;1.60;;;13.30;99.90;;;;;;5044457;28;20828;-81
2023/08/11 04:11:14;;;;;;;5.07;2.10;;;13.30;99.90;;;;;;5043309;28;20287;-81
2023/08/11 04:13:41;;;;;;;3.60;2.00;;;13.30;99.90;;;;;;5045592;28;20243;-82
2023/08/11 04:16:10;;;;;;;5.73;2.30;;;13.30;99.90;;;;;;5046996;28;20251;-82
2023/08/11 04:18:37;;;;;;;6.27;2.00;;;13.30;99.90;;;;;;5048985;28;20310;-81
2023/08/11 04:21:05;;;;;;;5.63;1.90;;;13.30;99.90;;;;;;5047444;28;20223;-81
2023/08/11 04:23:32;;;;;;;7.73;2.37;;;13.40;99.90;;;;;;5048326;28;20294;-81
2023/08/11 04:25:59;;;;;;;4.33;2.10;;;13.40;99.90;;;;;;5048132;28;20222;-82
2023/08/11 04:28:27;;;;;;;7.67;2.20;;;13.40;99.90;;;;;;5043112;28;20237;-82
2023/08/11 04:30:55;;;;;;;5.47;2.20;;;13.40;99.90;;;;;;5007193;28;20225;-80
2023/08/11 04:33:26;;;;;;;2.70;2.07;;;13.40;99.90;;;;;;5006288;28;20937;-83
2023/08/11 04:35:53;;;;;;;4.80;2.10;;;13.40;99.90;;;;;;5024796;28;20381;-83
2023/08/11 04:38:20;;;;;;;4.13;2.23;;;13.50;99.90;;;;;;5035365;28;20231;-82
2023/08/11 04:40:51;;;;;;;5.23;2.20;;;13.50;99.90;;;;;;5043772;28;20222;-82
2023/08/11 04:43:19;;;;;;;4.83;2.23;;;13.50;99.90;;;;;;5024293;28;20590;-80
2023/08/11 04:45:46;;;;;;;3.23;1.90;;;13.50;99.90;;;;;;5022568;28;20224;-80
2023/08/11 04:48:17;;;;;;;4.10;1.80;;;13.50;99.90;;;;;;5035380;28;20269;-81
2023/08/11 04:50:52;;;;;;;4.30;1.93;;;13.50;99.90;;;;;;5044765;28;20326;-81
2023/08/11 04:53:20;;;;;;;2.73;2.00;;;13.50;99.90;;;;;;5043255;28;20313;-81
2023/08/11 04:55:48;;;;;;;6.40;2.00;;;13.60;99.90;;;;;;5043598;28;20223;-81
2023/08/11 04:58:15;;;;;;;3.97;2.10;;;13.60;99.90;;;;;;5044484;28;20233;-81
2023/08/11 05:00:43;;;;;;;2.40;1.70;;;13.60;99.90;;;;;;5044600;28;20230;-81
2023/08/11 05:03:09;;;;;;;4.10;1.90;;;13.60;99.90;;;;;;5042545;28;20231;-81
2023/08/11 05:05:36;;;;;;;5.37;1.80;;;13.70;99.90;;;;;;5044877;28;20223;-82
2023/08/11 05:08:05;;;;;;;4.60;2.00;;;13.70;99.90;;;;;;5045639;28;20308;-82
2023/08/11 05:10:33;;;;;;;6.13;2.30;;;13.70;99.90;;;;;;5028537;28;20782;-80
2023/08/11 05:13:00;;;;;;;4.67;2.00;;;13.70;99.90;;;;;;5028849;28;20222;-80
2023/08/11 05:15:26;;;;;;;4.97;2.20;;;13.80;99.90;;;;;;5026988;28;20304;-81
2023/08/11 05:17:54;;;;;;;3.47;1.80;;;13.90;99.90;;;;;;5045175;28;20226;-81
2023/08/11 05:20:21;;;;;;;6.93;2.17;;;13.90;99.90;;;;;;5034553;28;20288;-81
2023/08/11 05:22:48;;;;;;;4.53;1.90;;;13.90;99.90;;;;;;5044137;28;20231;-81
2023/08/11 05:25:17;;;;;;;4.40;1.63;;;13.90;99.90;;;;;;5041935;28;20230;-81
2023/08/11 05:27:45;;;;;;;5.07;2.33;;;13.90;99.90;;;;;;5042773;28;20225;-81
2023/08/11 05:30:12;;;;;;;5.10;1.83;;;14.00;99.90;;;;;;5042881;28;20314;-81
2023/08/11 05:32:39;;;;;;;6.20;1.83;;;14.00;99.90;;;;;;5039674;28;20234;-81
2023/08/11 05:35:08;;;;;;;4.57;1.77;;;14.10;99.90;;;;;;5045465;28;20239;-81
2023/08/11 05:37:35;;;;;;;4.87;1.93;;;14.10;99.90;;;;;;5043743;28;20264;-81
2023/08/11 05:40:01;;;;;;;7.37;2.50;;;14.10;99.90;;;;;;5044710;28;20229;-81
2023/08/11 05:42:30;;;;;;;3.50;2.10;;;14.20;99.90;;;;;;5042429;28;20929;-81
2023/08/11 05:44:56;;;;;;;3.90;2.00;;;14.20;99.90;;;;;;5035457;28;20680;-81
2023/08/11 05:47:23;;;;;;;5.07;1.80;;;14.30;99.90;;;;;;5044825;28;20768;-81
2023/08/11 05:49:51;;;;;;;3.20;1.70;;;14.30;99.90;;;;;;5037973;28;20753;-81
2023/08/11 05:52:18;;;;;;;4.87;2.33;;;14.30;99.90;;;;;;5038327;28;20240;-81
2023/08/11 05:54:45;;;;;;;3.87;1.80;;;14.40;99.90;;;;;;5044947;28;20231;-81
2023/08/11 05:57:12;;;;;;;2.90;1.60;;;14.50;99.90;;;;;;5044616;28;20230;-81
2023/08/11 05:59:40;;;;;;;1.90;1.50;;;14.50;99.90;;;;;;5045294;28;20311;-81
2023/08/11 06:02:07;;;;;;;4.23;2.07;;;14.50;99.90;;;;;;5031242;28;20238;-81
2023/08/11 06:04:33;;;;;;;6.23;2.00;;;14.60;99.90;;;;;;5042942;28;20256;-81
2023/08/11 06:07:00;;;;;;;3.10;1.77;;;14.70;99.90;;;;;;5042658;28;20235;-81
2023/08/11 06:09:27;;;;;;;3.47;1.97;;;14.70;99.90;;;;;;5042211;28;20236;-81
2023/08/11 06:11:53;;;;;;;4.43;1.97;;;14.80;99.90;;;;;;5043367;28;21914;-81
2023/08/11 06:14:20;;;;;;;4.87;2.00;;;14.80;99.90;;;;;;5038106;28;20319;-81
2023/08/11 06:16:48;;;;;;;4.33;2.00;;;14.80;99.90;;;;;;5047650;28;20306;-81
2023/08/11 06:19:16;;;;;;;5.03;2.00;;;14.90;99.90;;;;;;5045290;28;20235;-81
2023/08/11 06:21:43;;;;;;;2.63;2.00;;;15.00;99.90;;;;;;5044927;28;20220;-82
2023/08/11 06:24:10;;;;;;;4.23;1.90;;;15.00;99.90;;;;;;5045220;28;20226;-80
2023/08/11 06:26:36;;;;;;;4.07;1.97;;;15.10;99.90;;;;;;5044225;28;20303;-81
2023/08/11 06:29:04;;;;;;;3.37;2.00;;;15.20;99.90;;;;;;5047123;28;20251;-81
2023/08/11 06:31:31;;;;;;;4.07;1.80;;;15.30;99.90;;;;;;5059263;28;20854;-81
2023/08/11 06:33:59;;;;;;;3.83;1.93;;;15.30;99.90;;;;;;5044933;28;20603;-81
2023/08/11 06:36:26;;;;;;;5.23;2.17;;;15.40;99.90;;;;;;5043123;28;21104;-82
2023/08/11 06:38:53;;;;;;;5.13;2.17;;;15.40;99.90;;;;;;5046949;28;20645;-81
2023/08/11 06:41:19;;;;;;;4.77;2.40;;;15.50;99.90;;;;;;5045544;28;20293;-81
2023/08/11 06:43:47;;;;;;;5.57;2.20;;;15.60;99.90;;;;;;5041175;28;20232;-82
2023/08/11 06:46:14;;;;;;;4.13;2.03;;;15.70;99.90;;;;;;5048201;28;20255;-81
2023/08/11 06:48:41;;;;;;;4.27;2.03;;;15.70;99.90;;;;;;5043832;28;20736;-81
2023/08/11 06:51:09;;;;;;;5.60;2.10;;;15.80;99.90;;;;;;5045067;28;20224;-82
2023/08/11 06:53:36;;;;;;;4.73;2.20;;;15.80;99.90;;;;;;5046305;28;20230;-80
2023/08/11 06:56:03;;;;;;;4.13;2.00;;;15.90;99.90;;;;;;5045586;28;20230;-80
2023/08/11 06:58:30;;;;;;;2.87;2.00;;;15.90;99.90;;;;;;5044998;28;20228;-79
2023/08/11 07:00:57;;;;;;;4.40;1.90;;;16.00;99.90;;;;;;5047382;28;20234;-80
2023/08/11 07:03:23;;;;;;;6.73;2.07;;;16.00;99.90;;;;;;5044807;28;20399;-80
2023/08/11 07:05:51;;;;;;;4.37;2.20;;;16.00;99.90;;;;;;5042961;28;20885;-80
2023/08/11 07:08:19;;;;;;;4.33;2.33;;;16.10;99.90;;;;;;5045381;28;20228;-79
2023/08/11 07:10:46;;;;;;;4.63;2.03;;;16.10;99.90;;;;;;5061731;28;20290;-80
2023/08/11 07:13:12;;;;;;;4.13;1.93;;;16.20;99.90;;;;;;5044123;28;20602;-80
2023/08/11 07:15:42;;;;;;;4.83;1.90;;;16.20;99.90;;;;;;5047071;28;20600;-79
2023/08/11 07:18:09;;;;;;;4.67;2.00;;;16.30;99.90;;;;;;5041484;28;20220;-80
2023/08/11 07:20:36;;;;;;;5.17;1.87;;;16.40;99.90;;;;;;5045848;28;20228;-79
2023/08/11 07:23:03;;;;;;;5.53;2.20;;;16.40;99.90;;;;;;5039249;28;20220;-80
2023/08/11 07:25:31;;;;;;;6.27;2.30;;;16.50;99.90;;;;;;5046666;28;20234;-80
2023/08/11 07:27:58;;;;;;;4.83;2.27;;;16.60;99.90;;;;;;5044009;28;20844;-80
2023/08/11 07:30:25;;;;;;;3.63;1.87;;;16.60;99.90;;;;;;5039708;28;20593;-80
2023/08/11 07:32:51;;;;;;;6.53;2.17;;;16.70;99.90;;;;;;5044554;28;20971;-80
2023/08/11 07:35:18;;;;;;;6.53;2.07;;;16.80;99.90;;;;;;5043333;28;20298;-80
2023/08/11 07:37:45;;;;;;;4.25;1.88;;;16.80;99.90;;;;;;5046520;28;20251;-79
2023/08/11 07:40:12;;;;;;;5.30;2.45;;;16.90;99.90;;;;;;5046174;28;20239;-80
2023/08/11 07:42:40;;;;;;;4.30;2.15;;;16.90;99.90;;;;;;5042175;28;20232;-80
2023/08/11 07:45:08;;;;;;;3.97;2.13;;;17.00;99.90;;;;;;5045216;28;20224;-82
2023/08/11 07:47:35;;;;;;;6.57;2.30;;;17.00;99.90;;;;;;5045431;28;20605;-82
2023/08/11 07:50:02;;;;;;;3.30;2.03;;;17.10;99.90;;;;;;5045131;23;20319;-81
2023/08/11 07:52:29;;;;;;;5.17;2.17;;;17.10;99.90;;;;;;5017261;23;20896;-80
2023/08/11 07:54:56;;;;;;;3.22;1.98;;;17.20;99.90;;;;;;5042585;28;20694;-81
2023/08/11 07:57:22;;;;;;;3.55;2.33;;;17.20;99.90;;;;;;5024753;28;20224;-84
2023/08/11 07:59:51;;;;;;;4.38;2.20;;;17.30;99.90;;;;;;5036886;23;20231;-81
2023/08/11 08:02:18;;;;;;;3.90;2.50;;;17.30;99.90;;;;;;5022513;23;20706;-87
2023/08/11 08:04:45;;;;;;;4.00;2.30;;;17.40;99.90;;;;;;5033138;23;20887;-82
2023/08/11 08:07:12;;;;;;;6.53;2.40;;;17.40;99.90;;;;;;5046901;22;20239;-83
2023/08/11 08:09:38;;;;;;;4.80;2.20;;;17.50;99.90;;;;;;5025502;28;20232;-82
2023/08/11 08:12:05;;;;;;;4.43;2.78;;;17.50;99.90;;;;;;5026903;28;20217;-81
2023/08/11 08:14:32;;;;;;;4.10;2.33;;;17.50;99.90;;;;;;5029017;28;20224;-82
2023/08/11 08:17:01;;;;;;;4.50;2.40;;;17.60;99.90;;;;;;5024545;23;20232;-82
2023/08/11 08:19:28;;;;;;;4.22;2.28;;;17.70;99.90;;;;;;5015842;23;20742;-81
2023/08/11 08:21:55;;;;;;;3.78;2.40;;;17.80;99.90;;;;;;5021763;23;20292;-85
2023/08/11 08:24:22;;;;;;;5.80;2.20;;;17.80;99.90;;;;;;5034154;22;20295;-84
2023/08/11 08:26:52;;;;;;;5.90;2.60;;;17.90;99.90;;;;;;5029345;28;20230;-85
2023/08/11 08:29:18;;;;;;;3.33;2.22;;;18.00;99.90;;;;;;5028705;28;20227;-81
2023/08/11 08:31:45;;;;;;;4.45;2.60;;;18.00;99.90;;;;;;5029515;23;20307;-82
2023/08/11 08:37:05;;;;;;;4.28;2.40;;;18.20;99.90;;;;;;5016730;22;20247;-84
2023/08/11 08:39:32;;;;;;;4.55;2.25;;;18.40;99.90;;;;;;5025569;23;20986;-82
2023/08/11 08:44:35;;;;;;;4.95;2.30;;;18.70;99.90;;;;;;5048153;22;20231;-82
2023/08/11 08:47:05;;;;;;;4.70;3.60;;;18.80;99.90;;;;;;5026093;22;20228;-81
2023/08/11 08:49:32;;;;;;;8.77;5.78;;;19.00;99.90;;;;;;5037231;22;20316;-82
2023/08/11 08:52:00;;;;;;;6.28;4.55;;;19.20;99.90;;;;;;5030783;22;20221;-81
2023/08/11 08:54:28;;;;;;;4.65;2.90;;;19.40;99.90;;;;;;5060776;28;20218;-82
2023/08/11 08:59:30;;;;;;;4.85;2.85;;;19.60;99.90;;;;;;5034890;22;20605;-85
2023/08/11 09:01:58;;;;;;;5.15;2.75;;;19.70;99.90;;;;;;5015422;23;20473;-82
2023/08/11 09:04:26;;;;;;;5.78;3.00;;;19.80;99.90;;;;;;4989651;28;20652;-82
2023/08/11 09:09:18;;;;;;;3.30;2.72;;;20.00;99.90;;;;;;5014668;22;20236;-82
2023/08/11 09:11:48;;;;;;;4.85;3.40;;;20.10;99.90;;;;;;5025741;28;20221;-81
2023/08/11 09:14:16;;;;;;;5.40;3.17;;;20.20;99.90;;;;;;5025237;23;20251;-82
2023/08/11 09:16:43;;;;;;;4.55;3.00;;;20.30;99.90;;;;;;5023078;28;20217;-82
2023/08/11 09:21:40;;;;;;;3.60;3.03;;;20.50;99.90;;;;;;5053852;23;20216;-82
2023/08/11 09:24:10;;;;;;;4.93;3.38;;;20.60;99.90;;;;;;5045790;28;20307;-82
2023/08/11 09:26:36;;;;;;;6.57;3.35;;;20.70;99.90;;;;;;5044349;22;20879;-82
2023/08/11 09:29:05;;;;;;;4.07;2.88;;;20.80;99.90;;;;;;5016815;22;20291;-85
2023/08/11 09:31:32;;;;;;;6.55;3.13;;;21.00;99.90;;;;;;5013053;23;20296;-82
2023/08/11 09:34:12;;;;;;;6.32;3.10;;;21.10;99.90;;;;;;5029678;22;20251;-82
2023/08/11 09:36:39;;;;;;;4.95;3.55;;;21.20;99.90;;;;;;5011348;23;20231;-85
2023/08/11 09:39:06;;;;;;;5.88;3.38;;;21.40;99.90;;;;;;5041674;22;20245;-85
2023/08/11 09:44:09;;;;;;;4.60;3.63;;;21.60;99.90;;;;;;5021341;28;20286;-81
2023/08/11 09:46:38;;;;;;;7.05;3.95;;;21.80;99.90;;;;;;5037028;28;20228;-81
2023/08/11 09:49:05;;;;;;;3.80;3.05;;;22.00;99.90;;;;;;5027255;28;20341;-81
2023/08/11 09:51:35;;;;;;;6.43;3.83;;;22.10;99.90;;;;;;5039941;28;20231;-81
2023/08/11 09:54:06;;;;;;;5.63;3.45;;;22.20;99.90;;;;;;5020727;28;20936;-81
2023/08/11 09:56:35;;;;;;;7.82;3.65;;;22.40;99.90;;;;;;5025638;28;20294;-81
2023/08/11 09:59:04;;;;;;;5.38;3.20;;;22.50;99.90;;;;;;5025118;28;20225;-81
2023/08/11 10:01:35;;;;;;;5.95;2.63;;;22.60;99.90;;;;;;5038487;28;20225;-81
2023/08/11 10:04:07;;;;;;;5.47;3.20;;;22.70;99.90;;;;;;5019771;28;20247;-81
2023/08/11 10:06:36;;;;;;;6.10;2.92;;;22.90;99.90;;;;;;5023399;28;20220;-82
2023/08/11 10:09:05;;;;;;;4.25;2.97;;;23.00;99.90;;;;;;5013973;28;20229;-81
2023/08/11 10:11:34;;;;;;;3.80;2.90;;;23.10;99.90;;;;;;5021810;28;20225;-80
2023/08/11 10:14:04;;;;;;;4.65;2.75;;;23.30;99.90;;;;;;5018540;28;20248;-81
2023/08/11 10:16:32;;;;;;;3.67;2.60;;;23.40;99.90;;;;;;5002731;28;20235;-81
2023/08/11 10:19:01;;;;;;;6.97;2.58;;;23.50;99.90;;;;;;5023810;28;20264;-81
2023/08/11 10:21:28;;;;;;;4.88;2.30;;;23.70;99.90;;;;;;5022566;28;20233;-81
2023/08/11 10:23:55;;;;;;;3.25;2.78;;;23.90;99.90;;;;;;5026581;28;20222;-81
2023/08/11 10:26:23;;;;;;;4.75;2.45;;;24.00;99.90;;;;;;5028500;28;20220;-80
2023/08/11 10:28:51;;;;;;;4.43;2.80;;;24.10;99.90;;;;;;5022235;28;20228;-81
2023/08/11 10:31:18;;;;;;;3.47;2.20;;;24.20;99.90;;;;;;5029452;28;20225;-81
2023/08/11 10:33:54;;;;;;;4.25;2.47;;;24.30;99.90;;;;;;5029305;28;20231;-81
2023/08/11 10:36:23;;;;;;;3.50;2.60;;;24.50;99.90;;;;;;5025488;28;20227;-81
2023/08/11 10:39:00;;;;;;;3.30;2.30;;;24.60;99.90;;;;;;5026058;28;20224;-81
2023/08/11 10:41:28;;;;;;;6.20;2.58;;;24.80;99.90;;;;;;5018235;28;20296;-81
2023/08/11 10:43:57;;;;;;;6.55;2.60;;;25.00;99.90;;;;;;5024077;28;20225;-81
2023/08/11 10:46:26;;;;;;;3.95;2.35;;;25.10;99.70;;;;;;5027894;28;20233;-81
2023/08/11 10:48:55;;;;;;;6.57;2.45;;;25.30;99.90;;;;;;5021205;28;20233;-81
2023/08/11 10:51:40;;;;;;;2.80;2.25;;;25.40;99.30;;;;;;5022870;28;20232;-80
2023/08/11 10:54:11;;;;;;;3.83;2.13;;;25.50;98.90;;;;;;5029175;28;20701;-80
2023/08/11 10:56:40;;;;;;;3.40;2.70;;;25.60;99.40;;;;;;5030941;28;20284;-80
2023/08/11 10:59:14;;;;;;;3.38;1.88;;;25.80;98.00;;;;;;5029416;28;20265;-81
2023/08/11 11:01:42;;;;;;;4.28;2.13;;;25.90;98.70;;;;;;5027954;28;20309;-81
2023/08/11 11:04:11;;;;;;;3.80;1.80;;;26.10;98.80;;;;;;5031059;28;20283;-81
2023/08/11 11:06:40;;;;;;;3.90;2.08;;;26.30;98.70;;;;;;5029512;28;20228;-80
2023/08/11 11:09:07;;;;;;;4.32;1.95;;;26.50;97.90;;;;;;5028142;28;20225;-81
2023/08/11 11:11:36;;;;;;;3.75;1.73;;;26.70;97.50;;;;;;5027249;28;20225;-80
2023/08/11 11:14:03;;;;;;;3.17;1.70;;;26.90;97.00;;;;;;5028388;28;20224;-80
2023/08/11 11:16:31;;;;;;;1.70;1.27;;;27.10;97.50;;;;;;5023522;28;20238;-82
2023/08/11 11:18:59;;;;;;;2.22;1.40;;;27.40;96.90;;;;;;5025022;28;20236;-82
2023/08/11 11:21:27;;;;;;;2.10;1.20;;;27.60;95.10;;;;;;5021716;28;20666;-82
2023/08/11 11:23:53;;;;;;;1.88;1.20;;;27.80;95.00;;;;;;5026306;28;20230;-82
2023/08/11 11:26:24;;;;;;;1.80;1.38;;;28.00;95.10;;;;;;5020493;28;20235;-82
2023/08/11 11:28:51;;;;;;;1.33;1.05;;;28.00;94.50;;;;;;5025248;28;20228;-83
2023/08/11 11:31:19;;;;;;;2.25;0.90;;;28.10;94.70;;;;;;5029050;28;20301;-82
2023/08/11 11:33:46;;;;;;;2.38;1.13;;;28.10;94.10;;;;;;5020298;28;20680;-83
2023/08/11 11:36:13;;;;;;;1.80;1.10;;;28.00;93.70;;;;;;5020942;28;20251;-82
2023/08/11 11:38:42;;;;;;;2.08;1.02;;;27.80;93.70;;;;;;5030914;28;20777;-82
2023/08/11 11:41:11;;;;;;;3.15;1.10;;;27.50;92.10;;;;;;5030936;28;20281;-81
2023/08/11 11:43:37;;;;;;;3.80;1.10;;;27.30;93.00;;;;;;5028367;28;20220;-82
2023/08/11 11:46:11;;;;;;;2.42;1.30;;;27.10;93.20;;;;;;5025194;28;20293;-83
2023/08/11 11:48:38;;;;;;;1.33;1.10;;;26.90;93.30;;;;;;5024757;28;20225;-84
2023/08/11 11:51:05;;;;;;;1.15;1.05;;;26.70;93.10;;;;;;5023034;28;20510;-83
2023/08/11 11:53:32;;;;;;;0.82;0.73;;;26.50;93.70;;;;;;5028467;28;20224;-81
2023/08/11 11:56:00;;;;;;;1.83;0.90;;;26.40;94.10;;;;;;5028726;28;20285;-83
2023/08/11 11:58:26;;;;;;;1.67;1.00;;;26.40;94.80;;;;;;5031441;28;20235;-82
2023/08/11 12:00:53;;;;;;;0.90;0.90;;;26.60;95.60;;;;;;5026951;28;20250;-82
2023/08/11 12:03:21;;;;;;;1.75;0.88;;;26.80;93.80;;;;;;5023092;28;20280;-82
2023/08/11 12:05:48;;;;;;;3.03;1.13;;;26.90;91.90;;;;;;5025821;28;21138;-82
2023/08/11 12:08:19;;;;;;;2.05;0.88;;;27.10;93.10;;;;;;5027266;28;20236;-81
2023/08/11 12:10:47;;;;;;;1.35;0.93;;;27.20;92.20;;;;;;5031244;28;20229;-82
2023/08/11 12:13:15;;;;;;;1.90;0.93;;;27.20;91.80;;;;;;5028043;28;20237;-82
2023/08/11 12:15:43;;;;;;;1.17;0.68;;;27.20;92.40;;;;;;5019943;28;20225;-81
2023/08/11 12:18:11;;;;;;;1.00;0.90;;;27.20;91.60;;;;;;5025544;28;20315;-82
2023/08/11 12:20:38;;;;;;;2.03;1.13;;;27.10;92.00;;;;;;5026588;28;20232;-82
2023/08/11 12:23:05;;;;;;;1.10;0.80;;;26.90;92.10;;;;;;5029144;28;20229;-81
2023/08/11 12:25:31;;;;;;;2.55;1.30;;;26.80;92.00;;;;;;5034005;28;20227;-82
2023/08/11 12:28:01;;;;;;;2.00;1.20;;;26.70;92.60;;;;;;5031494;28;20228;-82
2023/08/11 12:30:30;;;;;;;1.45;1.17;;;26.60;92.40;;;;;;5026503;28;20216;-82
2023/08/11 12:32:56;;;;;;;1.73;1.10;;;26.60;92.80;;;;;;5033803;28;20785;-82
2023/08/11 12:35:23;;;;;;;1.33;1.20;;;26.60;92.80;;;;;;5034269;28;20227;-82
2023/08/11 12:37:51;;;;;;;1.20;0.98;;;26.60;93.10;;;;;;5033968;28;20228;-82
2023/08/11 12:40:18;;;;;;;1.48;1.00;;;26.60;92.10;;;;;;5032616;28;20274;-82
2023/08/11 12:42:45;;;;;;;1.73;0.95;;;26.70;93.50;;;;;;5026726;28;20328;-82
2023/08/11 12:45:12;;;;;;;2.67;1.00;;;26.90;93.20;;;;;;5032048;28;20256;-81
2023/08/11 12:47:40;;;;;;;1.30;1.08;;;27.00;93.10;;;;;;5032602;28;20230;-82
2023/08/11 12:50:08;;;;;;;2.05;1.02;;;27.10;91.70;;;;;;5033712;28;20228;-82
2023/08/11 12:52:35;;;;;;;1.10;1.00;;;27.30;91.60;;;;;;5025705;28;21000;-82
2023/08/11 12:55:03;;;;;;;3.58;1.20;;;27.30;91.20;;;;;;5028732;28;20227;-82
2023/08/11 12:57:29;;;;;;;1.13;1.02;;;27.30;91.60;;;;;;5017402;28;20224;-82
2023/08/11 12:59:56;;;;;;;1.40;1.02;;;27.20;91.30;;;;;;5028658;28;20223;-82
2023/08/11 13:02:23;;;;;;;2.50;1.02;;;27.10;91.50;;;;;;5026438;28;21842;-82
2023/08/11 13:04:51;;;;;;;1.63;1.20;;;27.10;92.00;;;;;;5029503;28;20248;-82
2023/08/11 13:07:18;;;;;;;1.30;1.00;;;27.00;92.10;;;;;;5035398;28;20232;-82